sensor_id;sensor_type;location;lat;lon;timestamp;P1;durP1;ratioP1;P2;durP2;ratioP2
14377;SDS011;7272;53.668;9.578;2022-09-09T00:01:22;20.83;;;18.90;;
14377;SDS011;7272;53.668;9.578;2022-09-09T00:04:32;21.00;;;15.57;;
14377;SDS011;7272;53.668;9.578;2022-09-09T00:07:37;20.43;;;16.83;;
14377;SDS011;7272;53.668;9.578;2022-09-09T00:10:44;14.70;;;13.17;;
14377;SDS011;7272;53.668;9.578;2022-09-09T00:13:53;19.50;;;14.30;;
14377;SDS011;7272;53.668;9.578;2022-09-09T00:16:58;24.27;;;15.43;;
14377;SDS011;7272;53.668;9.578;2022-09-09T00:20:05;31.83;;;15.90;;
14377;SDS011;7272;53.668;9.578;2022-09-09T00:23:14;26.60;;;15.27;;
14377;SDS011;7272;53.668;9.578;2022-09-09T00:26:22;22.80;;;19.30;;
14377;SDS011;7272;53.668;9.578;2022-09-09T00:29:35;13.10;;;11.53;;
14377;SDS011;7272;53.668;9.578;2022-09-09T00:32:42;12.80;;;11.63;;
14377;SDS011;7272;53.668;9.578;2022-09-09T00:35:46;13.87;;;12.37;;
14377;SDS011;7272;53.668;9.578;2022-09-09T00:38:51;16.07;;;14.07;;
14377;SDS011;7272;53.668;9.578;2022-09-09T00:42:00;14.97;;;13.53;;
14377;SDS011;7272;53.668;9.578;2022-09-09T00:45:16;17.33;;;15.20;;
14377;SDS011;7272;53.668;9.578;2022-09-09T00:48:39;16.60;;;14.95;;
14377;SDS011;7272;53.668;9.578;2022-09-09T00:51:46;15.27;;;12.37;;
14377;SDS011;7272;53.668;9.578;2022-09-09T00:54:59;14.53;;;12.73;;
14377;SDS011;7272;53.668;9.578;2022-09-09T00:58:07;15.67;;;13.30;;
14377;SDS011;7272;53.668;9.578;2022-09-09T01:01:12;14.87;;;13.37;;
14377;SDS011;7272;53.668;9.578;2022-09-09T01:04:16;12.33;;;11.33;;
14377;SDS011;7272;53.668;9.578;2022-09-09T01:07:24;16.10;;;14.30;;
14377;SDS011;7272;53.668;9.578;2022-09-09T01:10:28;13.33;;;11.93;;
14377;SDS011;7272;53.668;9.578;2022-09-09T01:13:37;21.30;;;19.20;;
14377;SDS011;7272;53.668;9.578;2022-09-09T01:16:44;17.20;;;14.40;;
14377;SDS011;7272;53.668;9.578;2022-09-09T01:19:52;13.50;;;12.30;;
14377;SDS011;7272;53.668;9.578;2022-09-09T01:23:12;14.33;;;12.63;;
14377;SDS011;7272;53.668;9.578;2022-09-09T01:26:57;14.80;;;13.20;;
14377;SDS011;7272;53.668;9.578;2022-09-09T01:30:02;19.63;;;12.33;;
14377;SDS011;7272;53.668;9.578;2022-09-09T01:33:09;14.23;;;11.80;;
14377;SDS011;7272;53.668;9.578;2022-09-09T01:36:18;25.67;;;12.27;;
14377;SDS011;7272;53.668;9.578;2022-09-09T01:39:28;24.97;;;13.67;;
14377;SDS011;7272;53.668;9.578;2022-09-09T01:42:38;11.30;;;10.20;;
14377;SDS011;7272;53.668;9.578;2022-09-09T01:45:40;16.87;;;13.17;;
14377;SDS011;7272;53.668;9.578;2022-09-09T01:48:44;15.40;;;13.77;;
14377;SDS011;7272;53.668;9.578;2022-09-09T01:51:48;16.83;;;15.10;;
14377;SDS011;7272;53.668;9.578;2022-09-09T01:54:56;14.33;;;13.07;;
14377;SDS011;7272;53.668;9.578;2022-09-09T01:58:09;21.38;;;19.67;;
14377;SDS011;7272;53.668;9.578;2022-09-09T02:01:27;19.88;;;18.27;;
14377;SDS011;7272;53.668;9.578;2022-09-09T02:04:40;13.03;;;11.90;;
14377;SDS011;7272;53.668;9.578;2022-09-09T02:07:50;15.17;;;13.70;;
14377;SDS011;7272;53.668;9.578;2022-09-09T02:11:07;12.67;;;11.47;;
14377;SDS011;7272;53.668;9.578;2022-09-09T02:14:20;14.60;;;13.40;;
14377;SDS011;7272;53.668;9.578;2022-09-09T02:17:26;13.13;;;11.83;;
14377;SDS011;7272;53.668;9.578;2022-09-09T02:20:46;14.43;;;13.00;;
14377;SDS011;7272;53.668;9.578;2022-09-09T02:23:49;14.03;;;12.80;;
14377;SDS011;7272;53.668;9.578;2022-09-09T02:26:54;13.23;;;12.03;;
14377;SDS011;7272;53.668;9.578;2022-09-09T02:29:59;14.17;;;12.37;;
14377;SDS011;7272;53.668;9.578;2022-09-09T02:33:13;13.83;;;12.63;;
14377;SDS011;7272;53.668;9.578;2022-09-09T02:36:25;12.27;;;11.23;;
14377;SDS011;7272;53.668;9.578;2022-09-09T02:39:30;14.37;;;12.97;;
14377;SDS011;7272;53.668;9.578;2022-09-09T02:42:34;10.27;;;9.37;;
14377;SDS011;7272;53.668;9.578;2022-09-09T02:45:42;16.27;;;13.90;;
14377;SDS011;7272;53.668;9.578;2022-09-09T02:48:51;14.20;;;12.90;;
14377;SDS011;7272;53.668;9.578;2022-09-09T02:52:04;15.77;;;14.17;;
14377;SDS011;7272;53.668;9.578;2022-09-09T02:55:12;14.53;;;13.10;;
14377;SDS011;7272;53.668;9.578;2022-09-09T02:58:20;12.13;;;11.10;;
14377;SDS011;7272;53.668;9.578;2022-09-09T03:01:32;12.30;;;11.10;;
14377;SDS011;7272;53.668;9.578;2022-09-09T03:04:36;12.23;;;11.23;;
14377;SDS011;7272;53.668;9.578;2022-09-09T03:07:38;12.90;;;11.70;;
14377;SDS011;7272;53.668;9.578;2022-09-09T03:10:41;16.85;;;15.35;;
14377;SDS011;7272;53.668;9.578;2022-09-09T03:13:45;13.60;;;12.20;;
14377;SDS011;7272;53.668;9.578;2022-09-09T03:16:48;12.43;;;11.33;;
14377;SDS011;7272;53.668;9.578;2022-09-09T03:19:50;12.37;;;11.20;;
14377;SDS011;7272;53.668;9.578;2022-09-09T03:22:55;13.77;;;12.40;;
14377;SDS011;7272;53.668;9.578;2022-09-09T03:25:58;13.93;;;12.63;;
14377;SDS011;7272;53.668;9.578;2022-09-09T03:29:10;14.60;;;13.17;;
14377;SDS011;7272;53.668;9.578;2022-09-09T03:32:15;12.50;;;11.27;;
14377;SDS011;7272;53.668;9.578;2022-09-09T03:35:18;16.48;;;14.98;;
14377;SDS011;7272;53.668;9.578;2022-09-09T03:38:21;14.03;;;12.83;;
14377;SDS011;7272;53.668;9.578;2022-09-09T03:41:23;14.90;;;13.10;;
14377;SDS011;7272;53.668;9.578;2022-09-09T03:44:26;12.73;;;11.53;;
14377;SDS011;7272;53.668;9.578;2022-09-09T03:47:30;14.93;;;13.57;;
14377;SDS011;7272;53.668;9.578;2022-09-09T03:50:38;14.97;;;13.60;;
14377;SDS011;7272;53.668;9.578;2022-09-09T03:53:40;17.10;;;14.73;;
14377;SDS011;7272;53.668;9.578;2022-09-09T03:56:42;12.00;;;10.93;;
14377;SDS011;7272;53.668;9.578;2022-09-09T03:59:46;13.03;;;11.83;;
14377;SDS011;7272;53.668;9.578;2022-09-09T04:02:51;19.05;;;17.20;;
14377;SDS011;7272;53.668;9.578;2022-09-09T04:05:54;14.07;;;12.63;;
14377;SDS011;7272;53.668;9.578;2022-09-09T04:09:00;13.40;;;11.97;;
14377;SDS011;7272;53.668;9.578;2022-09-09T04:12:04;10.53;;;9.63;;
14377;SDS011;7272;53.668;9.578;2022-09-09T04:15:09;13.83;;;12.53;;
14377;SDS011;7272;53.668;9.578;2022-09-09T04:18:14;11.13;;;10.13;;
14377;SDS011;7272;53.668;9.578;2022-09-09T04:21:16;12.43;;;11.30;;
14377;SDS011;7272;53.668;9.578;2022-09-09T04:24:18;12.03;;;11.00;;
14377;SDS011;7272;53.668;9.578;2022-09-09T04:27:20;15.53;;;13.90;;
14377;SDS011;7272;53.668;9.578;2022-09-09T04:30:22;18.52;;;16.92;;
14377;SDS011;7272;53.668;9.578;2022-09-09T04:33:26;12.80;;;11.60;;
14377;SDS011;7272;53.668;9.578;2022-09-09T04:36:28;13.13;;;12.00;;
14377;SDS011;7272;53.668;9.578;2022-09-09T04:39:34;12.73;;;11.60;;
14377;SDS011;7272;53.668;9.578;2022-09-09T04:42:37;13.53;;;12.17;;
14377;SDS011;7272;53.668;9.578;2022-09-09T04:45:39;11.37;;;10.20;;
14377;SDS011;7272;53.668;9.578;2022-09-09T04:48:43;12.47;;;11.33;;
14377;SDS011;7272;53.668;9.578;2022-09-09T04:51:46;12.33;;;11.23;;
14377;SDS011;7272;53.668;9.578;2022-09-09T04:54:51;16.85;;;15.30;;
14377;SDS011;7272;53.668;9.578;2022-09-09T04:57:54;13.73;;;12.43;;
14377;SDS011;7272;53.668;9.578;2022-09-09T05:01:05;11.57;;;10.50;;
14377;SDS011;7272;53.668;9.578;2022-09-09T05:04:09;12.27;;;11.17;;
14377;SDS011;7272;53.668;9.578;2022-09-09T05:07:11;12.63;;;11.33;;
14377;SDS011;7272;53.668;9.578;2022-09-09T05:10:14;11.83;;;10.67;;
14377;SDS011;7272;53.668;9.578;2022-09-09T05:13:17;10.77;;;9.83;;
14377;SDS011;7272;53.668;9.578;2022-09-09T05:16:19;11.77;;;10.70;;
14377;SDS011;7272;53.668;9.578;2022-09-09T05:19:24;12.27;;;11.07;;
14377;SDS011;7272;53.668;9.578;2022-09-09T05:22:27;17.85;;;16.00;;
14377;SDS011;7272;53.668;9.578;2022-09-09T05:25:30;12.77;;;11.67;;
14377;SDS011;7272;53.668;9.578;2022-09-09T05:28:33;13.80;;;12.40;;
14377;SDS011;7272;53.668;9.578;2022-09-09T05:31:36;12.00;;;10.90;;
14377;SDS011;7272;53.668;9.578;2022-09-09T05:34:44;13.30;;;12.10;;
14377;SDS011;7272;53.668;9.578;2022-09-09T05:37:47;11.13;;;10.03;;
14377;SDS011;7272;53.668;9.578;2022-09-09T05:40:49;10.33;;;9.43;;
14377;SDS011;7272;53.668;9.578;2022-09-09T05:43:52;15.55;;;14.27;;
14377;SDS011;7272;53.668;9.578;2022-09-09T05:46:55;14.95;;;13.65;;
14377;SDS011;7272;53.668;9.578;2022-09-09T05:49:59;11.50;;;10.50;;
14377;SDS011;7272;53.668;9.578;2022-09-09T05:53:02;9.17;;;8.40;;
14377;SDS011;7272;53.668;9.578;2022-09-09T05:56:05;9.73;;;8.77;;
14377;SDS011;7272;53.668;9.578;2022-09-09T05:59:09;9.23;;;8.47;;
14377;SDS011;7272;53.668;9.578;2022-09-09T06:02:13;9.60;;;8.80;;
14377;SDS011;7272;53.668;9.578;2022-09-09T06:05:16;9.57;;;8.70;;
14377;SDS011;7272;53.668;9.578;2022-09-09T06:08:19;8.90;;;8.10;;
14377;SDS011;7272;53.668;9.578;2022-09-09T06:11:22;7.53;;;6.83;;
14377;SDS011;7272;53.668;9.578;2022-09-09T06:14:25;11.45;;;10.45;;
14377;SDS011;7272;53.668;9.578;2022-09-09T06:17:28;8.43;;;7.73;;
14377;SDS011;7272;53.668;9.578;2022-09-09T06:20:32;8.67;;;7.73;;
14377;SDS011;7272;53.668;9.578;2022-09-09T06:23:34;8.17;;;7.37;;
14377;SDS011;7272;53.668;9.578;2022-09-09T06:26:38;8.40;;;7.63;;
14377;SDS011;7272;53.668;9.578;2022-09-09T06:29:41;7.60;;;7.00;;
14377;SDS011;7272;53.668;9.578;2022-09-09T06:32:43;7.27;;;6.47;;
14377;SDS011;7272;53.668;9.578;2022-09-09T06:35:52;9.90;;;9.10;;
14377;SDS011;7272;53.668;9.578;2022-09-09T06:38:55;10.40;;;9.50;;
14377;SDS011;7272;53.668;9.578;2022-09-09T06:41:57;7.50;;;6.90;;
14377;SDS011;7272;53.668;9.578;2022-09-09T06:45:18;6.30;;;5.80;;
14377;SDS011;7272;53.668;9.578;2022-09-09T06:48:26;6.43;;;5.83;;
14377;SDS011;7272;53.668;9.578;2022-09-09T06:51:31;5.60;;;5.10;;
14377;SDS011;7272;53.668;9.578;2022-09-09T06:54:36;7.27;;;6.63;;
14377;SDS011;7272;53.668;9.578;2022-09-09T06:57:39;6.80;;;6.20;;
14377;SDS011;7272;53.668;9.578;2022-09-09T07:00:47;6.43;;;5.93;;
14377;SDS011;7272;53.668;9.578;2022-09-09T07:03:50;5.97;;;5.43;;
14377;SDS011;7272;53.668;9.578;2022-09-09T07:06:56;6.37;;;5.70;;
14377;SDS011;7272;53.668;9.578;2022-09-09T07:09:59;5.93;;;5.43;;
14377;SDS011;7272;53.668;9.578;2022-09-09T07:13:02;7.77;;;6.23;;
14377;SDS011;7272;53.668;9.578;2022-09-09T07:16:05;6.50;;;5.90;;
14377;SDS011;7272;53.668;9.578;2022-09-09T07:19:08;5.90;;;5.40;;
14377;SDS011;7272;53.668;9.578;2022-09-09T07:22:12;6.80;;;6.10;;
14377;SDS011;7272;53.668;9.578;2022-09-09T07:25:15;8.00;;;7.30;;
14377;SDS011;7272;53.668;9.578;2022-09-09T07:28:18;8.02;;;7.28;;
14377;SDS011;7272;53.668;9.578;2022-09-09T07:31:21;5.87;;;5.30;;
14377;SDS011;7272;53.668;9.578;2022-09-09T07:34:25;6.00;;;5.50;;
14377;SDS011;7272;53.668;9.578;2022-09-09T07:37:28;5.53;;;5.00;;
14377;SDS011;7272;53.668;9.578;2022-09-09T07:40:31;4.87;;;4.43;;
14377;SDS011;7272;53.668;9.578;2022-09-09T07:43:34;5.60;;;5.10;;
14377;SDS011;7272;53.668;9.578;2022-09-09T07:46:36;5.60;;;5.10;;
14377;SDS011;7272;53.668;9.578;2022-09-09T07:49:41;5.80;;;5.20;;
14377;SDS011;7272;53.668;9.578;2022-09-09T07:52:44;6.20;;;5.60;;
14377;SDS011;7272;53.668;9.578;2022-09-09T07:55:47;5.23;;;4.83;;
14377;SDS011;7272;53.668;9.578;2022-09-09T07:58:49;4.77;;;4.37;;
14377;SDS011;7272;53.668;9.578;2022-09-09T08:01:53;5.93;;;4.90;;
14377;SDS011;7272;53.668;9.578;2022-09-09T08:04:57;5.37;;;4.90;;
14377;SDS011;7272;53.668;9.578;2022-09-09T08:08:00;5.53;;;4.80;;
14377;SDS011;7272;53.668;9.578;2022-09-09T08:11:04;5.00;;;4.57;;
14377;SDS011;7272;53.668;9.578;2022-09-09T08:14:09;6.32;;;5.72;;
14377;SDS011;7272;53.668;9.578;2022-09-09T08:17:12;4.90;;;4.50;;
14377;SDS011;7272;53.668;9.578;2022-09-09T08:20:14;4.17;;;3.53;;
14377;SDS011;7272;53.668;9.578;2022-09-09T08:23:17;5.47;;;4.27;;
14377;SDS011;7272;53.668;9.578;2022-09-09T08:26:20;4.53;;;4.23;;
14377;SDS011;7272;53.668;9.578;2022-09-09T08:29:24;4.23;;;3.87;;
14377;SDS011;7272;53.668;9.578;2022-09-09T08:32:27;4.07;;;3.60;;
14377;SDS011;7272;53.668;9.578;2022-09-09T08:35:29;5.40;;;4.90;;
14377;SDS011;7272;53.668;9.578;2022-09-09T08:38:34;4.68;;;4.32;;
14377;SDS011;7272;53.668;9.578;2022-09-09T08:41:48;3.67;;;3.37;;
14377;SDS011;7272;53.668;9.578;2022-09-09T08:45:19;4.53;;;4.13;;
14377;SDS011;7272;53.668;9.578;2022-09-09T08:48:36;3.90;;;3.50;;
14377;SDS011;7272;53.668;9.578;2022-09-09T08:51:46;3.17;;;2.87;;
14377;SDS011;7272;53.668;9.578;2022-09-09T08:54:51;4.10;;;3.40;;
14377;SDS011;7272;53.668;9.578;2022-09-09T08:57:57;4.60;;;4.20;;
14377;SDS011;7272;53.668;9.578;2022-09-09T09:01:11;4.60;;;4.20;;
14377;SDS011;7272;53.668;9.578;2022-09-09T09:04:33;3.70;;;3.40;;
14377;SDS011;7272;53.668;9.578;2022-09-09T09:07:52;3.40;;;3.00;;
14377;SDS011;7272;53.668;9.578;2022-09-09T09:11:07;3.97;;;3.47;;
14377;SDS011;7272;53.668;9.578;2022-09-09T09:14:10;3.40;;;3.10;;
14377;SDS011;7272;53.668;9.578;2022-09-09T09:17:17;3.10;;;2.80;;
14377;SDS011;7272;53.668;9.578;2022-09-09T09:20:23;3.00;;;2.80;;
14377;SDS011;7272;53.668;9.578;2022-09-09T09:23:32;3.50;;;3.20;;
14377;SDS011;7272;53.668;9.578;2022-09-09T09:26:45;2.77;;;2.50;;
14377;SDS011;7272;53.668;9.578;2022-09-09T09:29:48;3.90;;;3.40;;
14377;SDS011;7272;53.668;9.578;2022-09-09T09:32:53;3.07;;;2.77;;
14377;SDS011;7272;53.668;9.578;2022-09-09T09:35:57;2.90;;;2.63;;
14377;SDS011;7272;53.668;9.578;2022-09-09T09:39:02;2.93;;;2.63;;
14377;SDS011;7272;53.668;9.578;2022-09-09T09:42:12;3.30;;;2.73;;
14377;SDS011;7272;53.668;9.578;2022-09-09T09:45:18;3.45;;;3.10;;
14377;SDS011;7272;53.668;9.578;2022-09-09T09:48:29;2.50;;;2.30;;
14377;SDS011;7272;53.668;9.578;2022-09-09T09:51:31;2.30;;;2.10;;
14377;SDS011;7272;53.668;9.578;2022-09-09T09:54:37;2.83;;;2.03;;
14377;SDS011;7272;53.668;9.578;2022-09-09T09:57:44;3.67;;;2.20;;
14377;SDS011;7272;53.668;9.578;2022-09-09T10:00:47;3.50;;;2.60;;
14377;SDS011;7272;53.668;9.578;2022-09-09T10:03:52;3.30;;;3.00;;
14377;SDS011;7272;53.668;9.578;2022-09-09T10:06:55;3.15;;;2.85;;
14377;SDS011;7272;53.668;9.578;2022-09-09T10:09:57;2.90;;;2.70;;
14377;SDS011;7272;53.668;9.578;2022-09-09T10:13:02;2.57;;;2.37;;
14377;SDS011;7272;53.668;9.578;2022-09-09T10:16:23;3.10;;;2.80;;
14377;SDS011;7272;53.668;9.578;2022-09-09T10:19:36;2.73;;;2.50;;
14377;SDS011;7272;53.668;9.578;2022-09-09T10:22:39;4.37;;;3.97;;
14377;SDS011;7272;53.668;9.578;2022-09-09T10:25:58;3.50;;;3.20;;
14377;SDS011;7272;53.668;9.578;2022-09-09T10:29:21;2.27;;;2.07;;
14377;SDS011;7272;53.668;9.578;2022-09-09T10:32:36;1.77;;;1.67;;
14377;SDS011;7272;53.668;9.578;2022-09-09T10:35:43;2.57;;;1.77;;
14377;SDS011;7272;53.668;9.578;2022-09-09T10:38:52;3.03;;;2.30;;
14377;SDS011;7272;53.668;9.578;2022-09-09T10:42:01;2.37;;;2.17;;
14377;SDS011;7272;53.668;9.578;2022-09-09T10:45:15;2.30;;;2.10;;
14377;SDS011;7272;53.668;9.578;2022-09-09T10:51:45;2.60;;;2.03;;
14377;SDS011;7272;53.668;9.578;2022-09-09T10:55:00;1.73;;;1.57;;
14377;SDS011;7272;53.668;9.578;2022-09-09T10:58:10;1.73;;;1.30;;
14377;SDS011;7272;53.668;9.578;2022-09-09T11:01:17;1.83;;;1.70;;
14377;SDS011;7272;53.668;9.578;2022-09-09T11:04:24;1.77;;;1.40;;
14377;SDS011;7272;53.668;9.578;2022-09-09T11:07:33;1.93;;;1.50;;
14377;SDS011;7272;53.668;9.578;2022-09-09T11:10:41;1.93;;;1.70;;
14377;SDS011;7272;53.668;9.578;2022-09-09T11:13:48;1.80;;;1.70;;
14377;SDS011;7272;53.668;9.578;2022-09-09T11:16:59;1.97;;;1.40;;
14377;SDS011;7272;53.668;9.578;2022-09-09T11:20:06;1.50;;;1.40;;
14377;SDS011;7272;53.668;9.578;2022-09-09T11:23:13;2.00;;;1.80;;
14377;SDS011;7272;53.668;9.578;2022-09-09T11:26:18;2.60;;;1.83;;
14377;SDS011;7272;53.668;9.578;2022-09-09T11:29:36;1.60;;;1.50;;
14377;SDS011;7272;53.668;9.578;2022-09-09T11:36:31;1.90;;;1.80;;
14377;SDS011;7272;53.668;9.578;2022-09-09T11:39:54;2.35;;;1.95;;
14377;SDS011;7272;53.668;9.578;2022-09-09T11:43:18;2.85;;;2.33;;
14377;SDS011;7272;53.668;9.578;2022-09-09T11:46:31;2.10;;;1.90;;
14377;SDS011;7272;53.668;9.578;2022-09-09T11:49:41;2.20;;;2.00;;
14377;SDS011;7272;53.668;9.578;2022-09-09T11:52:45;1.83;;;1.70;;
14377;SDS011;7272;53.668;9.578;2022-09-09T11:55:59;1.90;;;1.70;;
14377;SDS011;7272;53.668;9.578;2022-09-09T11:59:17;2.13;;;1.80;;
14377;SDS011;7272;53.668;9.578;2022-09-09T12:02:22;1.60;;;1.50;;
14377;SDS011;7272;53.668;9.578;2022-09-09T12:05:36;1.50;;;1.40;;
14377;SDS011;7272;53.668;9.578;2022-09-09T12:08:44;1.60;;;1.50;;
14377;SDS011;7272;53.668;9.578;2022-09-09T12:11:49;3.47;;;1.63;;
14377;SDS011;7272;53.668;9.578;2022-09-09T12:14:57;3.90;;;1.90;;
14377;SDS011;7272;53.668;9.578;2022-09-09T12:18:04;2.25;;;1.85;;
14377;SDS011;7272;53.668;9.578;2022-09-09T12:21:18;2.17;;;1.60;;
14377;SDS011;7272;53.668;9.578;2022-09-09T12:24:30;3.43;;;1.70;;
14377;SDS011;7272;53.668;9.578;2022-09-09T12:27:40;2.03;;;1.43;;
14377;SDS011;7272;53.668;9.578;2022-09-09T12:30:48;2.17;;;1.60;;
14377;SDS011;7272;53.668;9.578;2022-09-09T12:34:02;2.80;;;1.80;;
14377;SDS011;7272;53.668;9.578;2022-09-09T12:37:16;3.20;;;1.80;;
14377;SDS011;7272;53.668;9.578;2022-09-09T12:40:25;2.23;;;1.90;;
14377;SDS011;7272;53.668;9.578;2022-09-09T12:43:28;2.37;;;1.50;;
14377;SDS011;7272;53.668;9.578;2022-09-09T12:46:32;1.80;;;1.53;;
14377;SDS011;7272;53.668;9.578;2022-09-09T12:49:37;2.00;;;1.77;;
14377;SDS011;7272;53.668;9.578;2022-09-09T12:52:43;2.50;;;1.80;;
14377;SDS011;7272;53.668;9.578;2022-09-09T12:55:48;2.43;;;1.70;;
14377;SDS011;7272;53.668;9.578;2022-09-09T12:58:52;2.28;;;2.00;;
14377;SDS011;7272;53.668;9.578;2022-09-09T13:01:56;2.23;;;1.40;;
14377;SDS011;7272;53.668;9.578;2022-09-09T13:05:05;3.37;;;1.80;;
14377;SDS011;7272;53.668;9.578;2022-09-09T13:08:16;2.43;;;1.70;;
14377;SDS011;7272;53.668;9.578;2022-09-09T13:11:21;2.47;;;1.77;;
14377;SDS011;7272;53.668;9.578;2022-09-09T13:14:29;9.50;;;3.30;;
14377;SDS011;7272;53.668;9.578;2022-09-09T13:17:34;5.90;;;3.00;;
14377;SDS011;7272;53.668;9.578;2022-09-09T13:20:36;4.80;;;2.63;;
14377;SDS011;7272;53.668;9.578;2022-09-09T13:23:41;2.30;;;1.77;;
14377;SDS011;7272;53.668;9.578;2022-09-09T13:26:43;3.90;;;1.90;;
14377;SDS011;7272;53.668;9.578;2022-09-09T13:29:56;2.90;;;1.90;;
14377;SDS011;7272;53.668;9.578;2022-09-09T13:33:02;2.77;;;1.73;;
14377;SDS011;7272;53.668;9.578;2022-09-09T13:36:27;2.97;;;2.10;;
14377;SDS011;7272;53.668;9.578;2022-09-09T13:39:32;3.83;;;2.03;;
14377;SDS011;7272;53.668;9.578;2022-09-09T13:42:37;2.60;;;1.70;;
14377;SDS011;7272;53.668;9.578;2022-09-09T13:45:51;3.47;;;2.10;;
14377;SDS011;7272;53.668;9.578;2022-09-09T13:48:56;3.23;;;1.90;;
14377;SDS011;7272;53.668;9.578;2022-09-09T13:52:03;3.33;;;2.20;;
14377;SDS011;7272;53.668;9.578;2022-09-09T13:55:09;2.37;;;2.17;;
14377;SDS011;7272;53.668;9.578;2022-09-09T13:58:14;6.10;;;2.50;;
14377;SDS011;7272;53.668;9.578;2022-09-09T14:01:18;3.00;;;2.10;;
14377;SDS011;7272;53.668;9.578;2022-09-09T14:04:20;2.47;;;2.20;;
14377;SDS011;7272;53.668;9.578;2022-09-09T14:07:22;2.40;;;2.00;;
14377;SDS011;7272;53.668;9.578;2022-09-09T14:10:26;3.33;;;2.15;;
14377;SDS011;7272;53.668;9.578;2022-09-09T14:13:28;2.67;;;1.70;;
14377;SDS011;7272;53.668;9.578;2022-09-09T14:16:31;3.00;;;1.70;;
14377;SDS011;7272;53.668;9.578;2022-09-09T14:19:35;1.70;;;1.50;;
14377;SDS011;7272;53.668;9.578;2022-09-09T14:22:37;1.87;;;1.67;;
14377;SDS011;7272;53.668;9.578;2022-09-09T14:25:43;2.30;;;1.67;;
14377;SDS011;7272;53.668;9.578;2022-09-09T14:28:45;3.17;;;1.50;;
14377;SDS011;7272;53.668;9.578;2022-09-09T14:31:47;2.77;;;1.60;;
14377;SDS011;7272;53.668;9.578;2022-09-09T14:34:49;3.10;;;1.80;;
14377;SDS011;7272;53.668;9.578;2022-09-09T14:37:51;3.37;;;1.67;;
14377;SDS011;7272;53.668;9.578;2022-09-09T14:40:54;2.23;;;2.03;;
14377;SDS011;7272;53.668;9.578;2022-09-09T14:43:58;2.27;;;1.80;;
14377;SDS011;7272;53.668;9.578;2022-09-09T14:47:01;2.27;;;1.93;;
14377;SDS011;7272;53.668;9.578;2022-09-09T14:50:03;3.05;;;2.40;;
14377;SDS011;7272;53.668;9.578;2022-09-09T14:53:06;3.38;;;2.13;;
14377;SDS011;7272;53.668;9.578;2022-09-09T14:56:11;2.20;;;1.73;;
14377;SDS011;7272;53.668;9.578;2022-09-09T14:59:14;3.13;;;1.90;;
14377;SDS011;7272;53.668;9.578;2022-09-09T15:02:16;2.17;;;1.93;;
14377;SDS011;7272;53.668;9.578;2022-09-09T15:05:18;1.90;;;1.80;;
14377;SDS011;7272;53.668;9.578;2022-09-09T15:08:20;2.63;;;2.10;;
14377;SDS011;7272;53.668;9.578;2022-09-09T15:11:24;4.90;;;2.20;;
14377;SDS011;7272;53.668;9.578;2022-09-09T15:14:28;2.03;;;1.83;;
14377;SDS011;7272;53.668;9.578;2022-09-09T15:17:31;2.53;;;2.03;;
14377;SDS011;7272;53.668;9.578;2022-09-09T15:20:33;3.27;;;1.70;;
14377;SDS011;7272;53.668;9.578;2022-09-09T15:23:37;1.53;;;1.40;;
14377;SDS011;7272;53.668;9.578;2022-09-09T15:26:42;4.40;;;1.60;;
14377;SDS011;7272;53.668;9.578;2022-09-09T15:29:44;1.67;;;1.37;;
14377;SDS011;7272;53.668;9.578;2022-09-09T15:32:47;2.88;;;1.70;;
14377;SDS011;7272;53.668;9.578;2022-09-09T15:35:48;1.70;;;1.60;;
14377;SDS011;7272;53.668;9.578;2022-09-09T15:38:52;2.03;;;1.47;;
14377;SDS011;7272;53.668;9.578;2022-09-09T15:41:55;2.33;;;1.40;;
14377;SDS011;7272;53.668;9.578;2022-09-09T15:44:58;1.37;;;1.17;;
14377;SDS011;7272;53.668;9.578;2022-09-09T15:48:00;1.50;;;1.10;;
14377;SDS011;7272;53.668;9.578;2022-09-09T15:51:02;2.42;;;1.45;;
14377;SDS011;7272;53.668;9.578;2022-09-09T15:54:05;1.70;;;1.20;;
14377;SDS011;7272;53.668;9.578;2022-09-09T15:57:11;2.80;;;1.40;;
14377;SDS011;7272;53.668;9.578;2022-09-09T16:00:14;1.73;;;1.30;;
14377;SDS011;7272;53.668;9.578;2022-09-09T16:03:16;3.70;;;1.33;;
14377;SDS011;7272;53.668;9.578;2022-09-09T16:06:20;1.30;;;1.13;;
14377;SDS011;7272;53.668;9.578;2022-09-09T16:09:23;1.30;;;1.20;;
14377;SDS011;7272;53.668;9.578;2022-09-09T16:12:27;1.27;;;0.80;;
14377;SDS011;7272;53.668;9.578;2022-09-09T16:15:29;1.87;;;1.47;;
14377;SDS011;7272;53.668;9.578;2022-09-09T16:18:34;2.07;;;1.17;;
14377;SDS011;7272;53.668;9.578;2022-09-09T16:21:37;2.80;;;2.60;;
14377;SDS011;7272;53.668;9.578;2022-09-09T16:24:40;1.63;;;1.30;;
14377;SDS011;7272;53.668;9.578;2022-09-09T16:27:45;1.93;;;1.40;;
14377;SDS011;7272;53.668;9.578;2022-09-09T16:30:47;1.73;;;1.20;;
14377;SDS011;7272;53.668;9.578;2022-09-09T16:33:49;1.40;;;1.30;;
14377;SDS011;7272;53.668;9.578;2022-09-09T16:36:52;1.40;;;1.30;;
14377;SDS011;7272;53.668;9.578;2022-09-09T16:39:54;1.63;;;1.37;;
14377;SDS011;7272;53.668;9.578;2022-09-09T16:42:58;1.30;;;1.03;;
14377;SDS011;7272;53.668;9.578;2022-09-09T16:46:00;1.30;;;0.97;;
14377;SDS011;7272;53.668;9.578;2022-09-09T16:49:03;1.63;;;1.20;;
14377;SDS011;7272;53.668;9.578;2022-09-09T16:52:06;1.75;;;1.33;;
14377;SDS011;7272;53.668;9.578;2022-09-09T16:55:08;2.30;;;1.27;;
14377;SDS011;7272;53.668;9.578;2022-09-09T16:58:12;2.03;;;1.20;;
14377;SDS011;7272;53.668;9.578;2022-09-09T17:01:14;1.30;;;1.20;;
14377;SDS011;7272;53.668;9.578;2022-09-09T17:04:16;2.37;;;1.60;;
14377;SDS011;7272;53.668;9.578;2022-09-09T17:07:20;1.47;;;1.33;;
14377;SDS011;7272;53.668;9.578;2022-09-09T17:10:23;1.00;;;1.00;;
14377;SDS011;7272;53.668;9.578;2022-09-09T17:13:27;1.80;;;1.17;;
14377;SDS011;7272;53.668;9.578;2022-09-09T17:16:30;1.70;;;1.27;;
14377;SDS011;7272;53.668;9.578;2022-09-09T17:19:34;1.40;;;1.27;;
14377;SDS011;7272;53.668;9.578;2022-09-09T17:22:36;1.57;;;1.20;;
14377;SDS011;7272;53.668;9.578;2022-09-09T17:25:38;1.73;;;1.27;;
14377;SDS011;7272;53.668;9.578;2022-09-09T17:28:42;1.33;;;1.23;;
14377;SDS011;7272;53.668;9.578;2022-09-09T17:31:45;3.07;;;1.30;;
14377;SDS011;7272;53.668;9.578;2022-09-09T17:34:47;1.33;;;1.20;;
14377;SDS011;7272;53.668;9.578;2022-09-09T17:37:49;1.53;;;1.20;;
14377;SDS011;7272;53.668;9.578;2022-09-09T17:41:00;1.10;;;1.00;;
14377;SDS011;7272;53.668;9.578;2022-09-09T17:44:04;1.00;;;1.00;;
14377;SDS011;7272;53.668;9.578;2022-09-09T17:47:07;2.23;;;1.30;;
14377;SDS011;7272;53.668;9.578;2022-09-09T17:50:09;2.00;;;1.48;;
14377;SDS011;7272;53.668;9.578;2022-09-09T17:53:11;1.63;;;1.10;;
14377;SDS011;7272;53.668;9.578;2022-09-09T17:56:14;2.90;;;1.17;;
14377;SDS011;7272;53.668;9.578;2022-09-09T17:59:18;1.50;;;1.10;;
14377;SDS011;7272;53.668;9.578;2022-09-09T18:02:20;1.83;;;1.10;;
14377;SDS011;7272;53.668;9.578;2022-09-09T18:05:22;1.70;;;1.60;;
14377;SDS011;7272;53.668;9.578;2022-09-09T18:08:24;1.10;;;1.10;;
14377;SDS011;7272;53.668;9.578;2022-09-09T18:11:27;1.33;;;1.20;;
14377;SDS011;7272;53.668;9.578;2022-09-09T18:14:32;2.13;;;1.30;;
14377;SDS011;7272;53.668;9.578;2022-09-09T18:17:34;1.10;;;1.00;;
14377;SDS011;7272;53.668;9.578;2022-09-09T18:20:36;1.63;;;1.10;;
14377;SDS011;7272;53.668;9.578;2022-09-09T18:23:39;1.57;;;1.10;;
14377;SDS011;7272;53.668;9.578;2022-09-09T18:26:44;1.70;;;1.30;;
14377;SDS011;7272;53.668;9.578;2022-09-09T18:29:47;1.80;;;1.70;;
14377;SDS011;7272;53.668;9.578;2022-09-09T18:32:49;1.50;;;1.40;;
14377;SDS011;7272;53.668;9.578;2022-09-09T18:35:52;1.40;;;1.30;;
14377;SDS011;7272;53.668;9.578;2022-09-09T18:38:56;1.50;;;1.40;;
14377;SDS011;7272;53.668;9.578;2022-09-09T18:41:59;2.20;;;1.43;;
14377;SDS011;7272;53.668;9.578;2022-09-09T18:45:03;1.67;;;1.40;;
14377;SDS011;7272;53.668;9.578;2022-09-09T18:48:05;2.30;;;1.80;;
14377;SDS011;7272;53.668;9.578;2022-09-09T18:51:08;1.73;;;1.53;;
14377;SDS011;7272;53.668;9.578;2022-09-09T18:54:11;1.50;;;1.40;;